Aviation Digital Data Service (ADDS)

Output produced by METARs form (0222 UTC 05 June 2020)
found at http://www.aviationweather.gov/metar/data/
 
METAR text: RJAA 050200Z 16007KT 100V200 9999 FEW030 28/20 Q1006 NOSIG RMK 1CU030 A2972
Conditions at: RJAA (NARITA INTL , JP) observed 0200 UTC 05 June 2020
Temperature: 28.0°C (82°F)
Dewpoint: 20.0°C (68°F) [RH = 62%]
Pressure (altimeter): 29.70 inches Hg (1006.0 mb)
Winds: from the SSE (160 degrees) at 8 MPH (7 knots; 3.6 m/s)
Visibility: 6 or more miles (10+ km)
Ceiling: at least 12,000 feet AGL
Clouds: few clouds at 3000 feet AGL
Weather: no significant weather observed at this time

METAR text: RJAA 050130Z 14006KT 090V180 9999 FEW030 28/20 Q1006 NOSIG RMK 1CU030 A2973
Conditions at: RJAA (NARITA INTL , JP) observed 0130 UTC 05 June 2020
Temperature: 28.0°C (82°F)
Dewpoint: 20.0°C (68°F) [RH = 62%]
Pressure (altimeter): 29.70 inches Hg (1006.0 mb)
Winds: from the SE (140 degrees) at 7 MPH (6 knots; 3.1 m/s)
Visibility: 6 or more miles (10+ km)
Ceiling: at least 12,000 feet AGL
Clouds: few clouds at 3000 feet AGL
Weather: no significant weather observed at this time

METAR text: RJAA 050100Z 17005KT 130V220 9999 FEW030 27/20 Q1006 NOSIG RMK 1CU030 A2973
Conditions at: RJAA (NARITA INTL , JP) observed 0100 UTC 05 June 2020
Temperature: 27.0°C (81°F)
Dewpoint: 20.0°C (68°F) [RH = 66%]
Pressure (altimeter): 29.70 inches Hg (1006.0 mb)
Winds: from the S (170 degrees) at 6 MPH (5 knots; 2.6 m/s)
Visibility: 6 or more miles (10+ km)
Ceiling: at least 12,000 feet AGL
Clouds: few clouds at 3000 feet AGL
Weather: no significant weather observed at this time

METAR text: RJAA 050030Z VRB05KT 9999 FEW020 27/21 Q1006 BECMG 14006KT
Conditions at: RJAA (NARITA INTL , JP) observed 0030 UTC 05 June 2020
Temperature: 27.0°C (81°F)
Dewpoint: 21.0°C (70°F) [RH = 70%]
Pressure (altimeter): 29.70 inches Hg (1006.0 mb)
Winds: variable direction winds at 6 MPH (5 knots; 2.6 m/s)
Visibility: 6 or more miles (10+ km)
Ceiling: at least 12,000 feet AGL
Clouds: few clouds at 2000 feet AGL
Weather: no significant weather observed at this time

METAR text: RJAA 050000Z VRB04KT 9999 FEW020 25/20 Q1006 BECMG 14006KT
Conditions at: RJAA (NARITA INTL , JP) observed 0000 UTC 05 June 2020
Temperature: 25.0°C (77°F)
Dewpoint: 20.0°C (68°F) [RH = 74%]
Pressure (altimeter): 29.70 inches Hg (1006.0 mb)
Winds: variable direction winds at 5 MPH (4 knots; 2.1 m/s)
Visibility: 6 or more miles (10+ km)
Ceiling: at least 12,000 feet AGL
Clouds: few clouds at 2000 feet AGL
Weather: no significant weather observed at this time

METAR text: RJAA 042330Z 15004KT 9999 FEW015 BKN/// 25/21 Q1006 NOSIG RMK 1CU015 A2973
Conditions at: RJAA (NARITA INTL , JP) observed 2330 UTC 04 June 2020
Temperature: 25.0°C (77°F)
Dewpoint: 21.0°C (70°F) [RH = 79%]
Pressure (altimeter): 29.70 inches Hg (1006.0 mb)
Winds: from the SSE (150 degrees) at 5 MPH (4 knots; 2.1 m/s)
Visibility: 6 or more miles (10+ km)
Ceiling: at least 12,000 feet AGL
Clouds: few clouds at 1500 feet AGL
Weather: no significant weather observed at this time

METAR text: RJAA 042300Z 15005KT 110V190 9999 FEW010 BKN/// 25/21 Q1006 NOSIG
Conditions at: RJAA (NARITA INTL , JP) observed 2300 UTC 04 June 2020
Temperature: 25.0°C (77°F)
Dewpoint: 21.0°C (70°F) [RH = 79%]
Pressure (altimeter): 29.70 inches Hg (1006.0 mb)
Winds: from the SSE (150 degrees) at 6 MPH (5 knots; 2.6 m/s)
Visibility: 6 or more miles (10+ km)
Ceiling: at least 12,000 feet AGL
Clouds: few clouds at 1000 feet AGL
Weather: no significant weather observed at this time

METAR text: RJAA 042230Z 14005KT 9999 FEW008 SCT010 BKN/// 23/21 Q1006 NOSIG
Conditions at: RJAA (NARITA INTL , JP) observed 2230 UTC 04 June 2020
Temperature: 23.0°C (73°F)
Dewpoint: 21.0°C (70°F) [RH = 89%]
Pressure (altimeter): 29.70 inches Hg (1006.0 mb)
Winds: from the SE (140 degrees) at 6 MPH (5 knots; 2.6 m/s)
Visibility: 6 or more miles (10+ km)
Ceiling: at least 12,000 feet AGL
Clouds: few clouds at 800 feet AGL
scattered clouds at 1000 feet AGL
Weather: no significant weather observed at this time

METAR text: RJAA 042200Z 15005KT 8000 FEW007 BKN/// 23/21 Q1006 NOSIG RMK 2ST007 A2971
Conditions at: RJAA (NARITA INTL , JP) observed 2200 UTC 04 June 2020
Temperature: 23.0°C (73°F)
Dewpoint: 21.0°C (70°F) [RH = 89%]
Pressure (altimeter): 29.70 inches Hg (1006.0 mb)
Winds: from the SSE (150 degrees) at 6 MPH (5 knots; 2.6 m/s)
Visibility: 5 miles ( 8 km)
Ceiling: at least 12,000 feet AGL
Clouds: few clouds at 700 feet AGL
Weather: no significant weather observed at this time

METAR text: RJAA 042130Z 13003KT 090V160 5000 BR FEW015 BKN/// 22/21 Q1006 NOSIG RMK 1CU015 A2971
Conditions at: RJAA (NARITA INTL , JP) observed 2130 UTC 04 June 2020
Temperature: 22.0°C (72°F)
Dewpoint: 21.0°C (70°F) [RH = 94%]
Pressure (altimeter): 29.70 inches Hg (1006.0 mb)
Winds: from the SE (130 degrees) at 3 MPH (3 knots; 1.5 m/s)
Visibility: 3 miles ( 5 km)
Ceiling: at least 12,000 feet AGL
Clouds: few clouds at 1500 feet AGL
Weather: BR  (mist)

METAR text: RJAA 042100Z VRB01KT 4500 BR FEW004 BKN/// 21/21 Q1005 BECMG 6000 NSW RMK 1ST004 A2970
Conditions at: RJAA (NARITA INTL , JP) observed 2100 UTC 04 June 2020
Temperature: 21.0°C (70°F)
Dewpoint: 21.0°C (70°F) [RH = 100%]
Pressure (altimeter): 29.68 inches Hg (1005.0 mb)
Winds: variable direction winds at 1 MPH (1 knots; 0.5 m/s)
Visibility: 2.80 miles (4.51 km)
Ceiling: at least 12,000 feet AGL
Clouds: few clouds at 400 feet AGL
Weather: BR  (mist)

METAR text: RJAA 042030Z 13002KT 4000 BR FEW010 BKN/// 20/20 Q1005 BECMG 6000 NSW
Conditions at: RJAA (NARITA INTL , JP) observed 2030 UTC 04 June 2020
Temperature: 20.0°C (68°F)
Dewpoint: 20.0°C (68°F) [RH = 100%]
Pressure (altimeter): 29.68 inches Hg (1005.0 mb)
Winds: from the SE (130 degrees) at 2 MPH (2 knots; 1.0 m/s)
Visibility: 2.49 miles (4.01 km)
Ceiling: at least 12,000 feet AGL
Clouds: few clouds at 1000 feet AGL
Weather: BR  (mist)

METAR text: RJAA 042000Z 16002KT 3500 R16R/1600VP2000N R16L///// MIFG BR FEW003 BKN/// 19/19 Q1005 TEMPO 3000 BR RMK 1ST003 A2969
Conditions at: RJAA (NARITA INTL , JP) observed 2000 UTC 04 June 2020
Temperature: 19.0°C (66°F)
Dewpoint: 19.0°C (66°F) [RH = 100%]
Pressure (altimeter): 29.68 inches Hg (1005.0 mb)
Winds: from the SSE (160 degrees) at 2 MPH (2 knots; 1.0 m/s)
Visibility: 2.17 miles (3.49 km)
Ceiling: at least 12,000 feet AGL
Clouds: few clouds at 300 feet AGL
Weather: MIFG BR  (shallow fog, mist)

METAR text: RJAA 041930Z 15004KT 3500 MIFG BR FEW015 BKN/// 19/19 Q1005 TEMPO 3000 BR RMK 1CU015 A2969
Conditions at: RJAA (NARITA INTL , JP) observed 1930 UTC 04 June 2020
Temperature: 19.0°C (66°F)
Dewpoint: 19.0°C (66°F) [RH = 100%]
Pressure (altimeter): 29.68 inches Hg (1005.0 mb)
Winds: from the SSE (150 degrees) at 5 MPH (4 knots; 2.1 m/s)
Visibility: 2.17 miles (3.49 km)
Ceiling: at least 12,000 feet AGL
Clouds: few clouds at 1500 feet AGL
Weather: MIFG BR  (shallow fog, mist)

METAR text: RJAA 041900Z 16003KT 4000 MIFG BR FEW015 BKN/// 19/19 Q1005 NOSIG RMK 1CU015 A2968
Conditions at: RJAA (NARITA INTL , JP) observed 1900 UTC 04 June 2020
Temperature: 19.0°C (66°F)
Dewpoint: 19.0°C (66°F) [RH = 100%]
Pressure (altimeter): 29.68 inches Hg (1005.0 mb)
Winds: from the SSE (160 degrees) at 3 MPH (3 knots; 1.5 m/s)
Visibility: 2.49 miles (4.01 km)
Ceiling: at least 12,000 feet AGL
Clouds: few clouds at 1500 feet AGL
Weather: MIFG BR  (shallow fog, mist)

METAR text: RJAA 041830Z 15004KT 5000 BR FEW015 BKN/// 19/19 Q1004 TEMPO 3000 BR RMK 1CU015 A2967
Conditions at: RJAA (NARITA INTL , JP) observed 1830 UTC 04 June 2020
Temperature: 19.0°C (66°F)
Dewpoint: 19.0°C (66°F) [RH = 100%]
Pressure (altimeter): 29.65 inches Hg (1004.0 mb)
Winds: from the SSE (150 degrees) at 5 MPH (4 knots; 2.1 m/s)
Visibility: 3 miles ( 5 km)
Ceiling: at least 12,000 feet AGL
Clouds: few clouds at 1500 feet AGL
Weather: BR  (mist)

METAR text: RJAA 041800Z 16004KT 5000 BR FEW015 BKN/// 20/20 Q1004 TEMPO 3000 BR
Conditions at: RJAA (NARITA INTL , JP) observed 1800 UTC 04 June 2020
Temperature: 20.0°C (68°F)
Dewpoint: 20.0°C (68°F) [RH = 100%]
Pressure (altimeter): 29.65 inches Hg (1004.0 mb)
Winds: from the SSE (160 degrees) at 5 MPH (4 knots; 2.1 m/s)
Visibility: 3 miles ( 5 km)
Ceiling: at least 12,000 feet AGL
Clouds: few clouds at 1500 feet AGL
Weather: BR  (mist)

METAR text: RJAA 041730Z 17005KT 6000 FEW015 BKN/// 20/20 Q1004 TEMPO 3000 BR RMK 1CU015 A2967
Conditions at: RJAA (NARITA INTL , JP) observed 1730 UTC 04 June 2020
Temperature: 20.0°C (68°F)
Dewpoint: 20.0°C (68°F) [RH = 100%]
Pressure (altimeter): 29.65 inches Hg (1004.0 mb)
Winds: from the S (170 degrees) at 6 MPH (5 knots; 2.6 m/s)
Visibility: 4 miles ( 6 km)
Ceiling: at least 12,000 feet AGL
Clouds: few clouds at 1500 feet AGL
Weather: no significant weather observed at this time

METAR text: RJAA 041700Z 17006KT 6000 FEW015 BKN/// 20/20 Q1004 TEMPO 3000 BR RMK 1CU015 A2967
Conditions at: RJAA (NARITA INTL , JP) observed 1700 UTC 04 June 2020
Temperature: 20.0°C (68°F)
Dewpoint: 20.0°C (68°F) [RH = 100%]
Pressure (altimeter): 29.65 inches Hg (1004.0 mb)
Winds: from the S (170 degrees) at 7 MPH (6 knots; 3.1 m/s)
Visibility: 4 miles ( 6 km)
Ceiling: at least 12,000 feet AGL
Clouds: few clouds at 1500 feet AGL
Weather: no significant weather observed at this time

METAR text: RJAA 041630Z 16006KT 6000 FEW015 BKN/// 20/20 Q1004 BECMG 3000 BR
Conditions at: RJAA (NARITA INTL , JP) observed 1630 UTC 04 June 2020
Temperature: 20.0°C (68°F)
Dewpoint: 20.0°C (68°F) [RH = 100%]
Pressure (altimeter): 29.65 inches Hg (1004.0 mb)
Winds: from the SSE (160 degrees) at 7 MPH (6 knots; 3.1 m/s)
Visibility: 4 miles ( 6 km)
Ceiling: at least 12,000 feet AGL
Clouds: few clouds at 1500 feet AGL
Weather: no significant weather observed at this time

METAR text: RJAA 041600Z 16005KT 6000 FEW015 BKN/// 20/20 Q1005 BECMG 3000 BR RMK 1CU015 A2968
Conditions at: RJAA (NARITA INTL , JP) observed 1600 UTC 04 June 2020
Temperature: 20.0°C (68°F)
Dewpoint: 20.0°C (68°F) [RH = 100%]
Pressure (altimeter): 29.68 inches Hg (1005.0 mb)
Winds: from the SSE (160 degrees) at 6 MPH (5 knots; 2.6 m/s)
Visibility: 4 miles ( 6 km)
Ceiling: at least 12,000 feet AGL
Clouds: few clouds at 1500 feet AGL
Weather: no significant weather observed at this time

METAR text: RJAA 041530Z 17005KT 6000 FEW015 BKN/// 21/20 Q1005 BECMG 3000 BR
Conditions at: RJAA (NARITA INTL , JP) observed 1530 UTC 04 June 2020
Temperature: 21.0°C (70°F)
Dewpoint: 20.0°C (68°F) [RH = 94%]
Pressure (altimeter): 29.68 inches Hg (1005.0 mb)
Winds: from the S (170 degrees) at 6 MPH (5 knots; 2.6 m/s)
Visibility: 4 miles ( 6 km)
Ceiling: at least 12,000 feet AGL
Clouds: few clouds at 1500 feet AGL
Weather: no significant weather observed at this time

METAR text: RJAA 041500Z 17006KT 6000 FEW015 BKN/// 21/20 Q1005 BECMG 3000 BR
Conditions at: RJAA (NARITA INTL , JP) observed 1500 UTC 04 June 2020
Temperature: 21.0°C (70°F)
Dewpoint: 20.0°C (68°F) [RH = 94%]
Pressure (altimeter): 29.68 inches Hg (1005.0 mb)
Winds: from the S (170 degrees) at 7 MPH (6 knots; 3.1 m/s)
Visibility: 4 miles ( 6 km)
Ceiling: at least 12,000 feet AGL
Clouds: few clouds at 1500 feet AGL
Weather: no significant weather observed at this time

METAR text: RJAA 041430Z 17005KT 5000 BR FEW015 BKN/// 21/20 Q1005 BECMG 3000 BR
Conditions at: RJAA (NARITA INTL , JP) observed 1430 UTC 04 June 2020
Temperature: 21.0°C (70°F)
Dewpoint: 20.0°C (68°F) [RH = 94%]
Pressure (altimeter): 29.68 inches Hg (1005.0 mb)
Winds: from the S (170 degrees) at 6 MPH (5 knots; 2.6 m/s)
Visibility: 3 miles ( 5 km)
Ceiling: at least 12,000 feet AGL
Clouds: few clouds at 1500 feet AGL
Weather: BR  (mist)

METAR text: RJAA 041400Z 17004KT 5000 BR FEW015 BKN/// 21/20 Q1005 BECMG 3000 BR RMK 1CU015 A2970
Conditions at: RJAA (NARITA INTL , JP) observed 1400 UTC 04 June 2020
Temperature: 21.0°C (70°F)
Dewpoint: 20.0°C (68°F) [RH = 94%]
Pressure (altimeter): 29.68 inches Hg (1005.0 mb)
Winds: from the S (170 degrees) at 5 MPH (4 knots; 2.1 m/s)
Visibility: 3 miles ( 5 km)
Ceiling: at least 12,000 feet AGL
Clouds: few clouds at 1500 feet AGL
Weather: BR  (mist)

METAR text: RJAA 041330Z 16003KT 6000 FEW015 BKN/// 21/20 Q1005 NOSIG
Conditions at: RJAA (NARITA INTL , JP) observed 1330 UTC 04 June 2020
Temperature: 21.0°C (70°F)
Dewpoint: 20.0°C (68°F) [RH = 94%]
Pressure (altimeter): 29.68 inches Hg (1005.0 mb)
Winds: from the SSE (160 degrees) at 3 MPH (3 knots; 1.5 m/s)
Visibility: 4 miles ( 6 km)
Ceiling: at least 12,000 feet AGL
Clouds: few clouds at 1500 feet AGL
Weather: no significant weather observed at this time

METAR text: RJAA 041300Z 17004KT 6000 FEW015 BKN/// 21/20 Q1006 NOSIG RMK 1CU015 A2971
Conditions at: RJAA (NARITA INTL , JP) observed 1300 UTC 04 June 2020
Temperature: 21.0°C (70°F)
Dewpoint: 20.0°C (68°F) [RH = 94%]
Pressure (altimeter): 29.70 inches Hg (1006.0 mb)
Winds: from the S (170 degrees) at 5 MPH (4 knots; 2.1 m/s)
Visibility: 4 miles ( 6 km)
Ceiling: at least 12,000 feet AGL
Clouds: few clouds at 1500 feet AGL
Weather: no significant weather observed at this time

METAR text: RJAA 041230Z 17005KT 6000 FEW030 BKN/// 22/20 Q1006 NOSIG RMK 1CU030 A2971
Conditions at: RJAA (NARITA INTL , JP) observed 1230 UTC 04 June 2020
Temperature: 22.0°C (72°F)
Dewpoint: 20.0°C (68°F) [RH = 88%]
Pressure (altimeter): 29.70 inches Hg (1006.0 mb)
Winds: from the S (170 degrees) at 6 MPH (5 knots; 2.6 m/s)
Visibility: 4 miles ( 6 km)
Ceiling: at least 12,000 feet AGL
Clouds: few clouds at 3000 feet AGL
Weather: no significant weather observed at this time

METAR text: RJAA 041200Z 17006KT 7000 FEW030 BKN/// 22/20 Q1005 NOSIG RMK 1CU030 A2970
Conditions at: RJAA (NARITA INTL , JP) observed 1200 UTC 04 June 2020
Temperature: 22.0°C (72°F)
Dewpoint: 20.0°C (68°F) [RH = 88%]
Pressure (altimeter): 29.68 inches Hg (1005.0 mb)
Winds: from the S (170 degrees) at 7 MPH (6 knots; 3.1 m/s)
Visibility: 4 miles ( 7 km)
Ceiling: at least 12,000 feet AGL
Clouds: few clouds at 3000 feet AGL
Weather: no significant weather observed at this time

METAR text: RJAA 041130Z 16006KT 7000 FEW030 BKN/// 22/20 Q1005 NOSIG RMK 1CU030 A2969
Conditions at: RJAA (NARITA INTL , JP) observed 1130 UTC 04 June 2020
Temperature: 22.0°C (72°F)
Dewpoint: 20.0°C (68°F) [RH = 88%]
Pressure (altimeter): 29.68 inches Hg (1005.0 mb)
Winds: from the SSE (160 degrees) at 7 MPH (6 knots; 3.1 m/s)
Visibility: 4 miles ( 7 km)
Ceiling: at least 12,000 feet AGL
Clouds: few clouds at 3000 feet AGL
Weather: no significant weather observed at this time

METAR text: RJAA 041100Z 17005KT 8000 FEW030 BKN/// 22/20 Q1005 NOSIG RMK 1CU030 A2969
Conditions at: RJAA (NARITA INTL , JP) observed 1100 UTC 04 June 2020
Temperature: 22.0°C (72°F)
Dewpoint: 20.0°C (68°F) [RH = 88%]
Pressure (altimeter): 29.68 inches Hg (1005.0 mb)
Winds: from the S (170 degrees) at 6 MPH (5 knots; 2.6 m/s)
Visibility: 5 miles ( 8 km)
Ceiling: at least 12,000 feet AGL
Clouds: few clouds at 3000 feet AGL
Weather: no significant weather observed at this time

METAR text: RJAA 041030Z 16005KT 8000 FEW030 BKN/// 22/20 Q1005 NOSIG RMK 1CU030 A2968
Conditions at: RJAA (NARITA INTL , JP) observed 1030 UTC 04 June 2020
Temperature: 22.0°C (72°F)
Dewpoint: 20.0°C (68°F) [RH = 88%]
Pressure (altimeter): 29.68 inches Hg (1005.0 mb)
Winds: from the SSE (160 degrees) at 6 MPH (5 knots; 2.6 m/s)
Visibility: 5 miles ( 8 km)
Ceiling: at least 12,000 feet AGL
Clouds: few clouds at 3000 feet AGL
Weather: no significant weather observed at this time

METAR text: RJAA 041000Z 15006KT 8000 FEW030 BKN/// 23/20 Q1005 NOSIG RMK 1CU030 A2968
Conditions at: RJAA (NARITA INTL , JP) observed 1000 UTC 04 June 2020
Temperature: 23.0°C (73°F)
Dewpoint: 20.0°C (68°F) [RH = 83%]
Pressure (altimeter): 29.68 inches Hg (1005.0 mb)
Winds: from the SSE (150 degrees) at 7 MPH (6 knots; 3.1 m/s)
Visibility: 5 miles ( 8 km)
Ceiling: at least 12,000 feet AGL
Clouds: few clouds at 3000 feet AGL
Weather: no significant weather observed at this time

METAR text: RJAA 040930Z 16006KT 9999 FEW025 BKN/// 24/20 Q1005 NOSIG RMK 1CU025 A2968
Conditions at: RJAA (NARITA INTL , JP) observed 0930 UTC 04 June 2020
Temperature: 24.0°C (75°F)
Dewpoint: 20.0°C (68°F) [RH = 78%]
Pressure (altimeter): 29.68 inches Hg (1005.0 mb)
Winds: from the SSE (160 degrees) at 7 MPH (6 knots; 3.1 m/s)
Visibility: 6 or more miles (10+ km)
Ceiling: at least 12,000 feet AGL
Clouds: few clouds at 2500 feet AGL
Weather: no significant weather observed at this time

METAR text: RJAA 040900Z 17007KT 140V200 9999 FEW025 BKN/// 25/20 Q1005 NOSIG RMK 1CU025 A2968
Conditions at: RJAA (NARITA INTL , JP) observed 0900 UTC 04 June 2020
Temperature: 25.0°C (77°F)
Dewpoint: 20.0°C (68°F) [RH = 74%]
Pressure (altimeter): 29.68 inches Hg (1005.0 mb)
Winds: from the S (170 degrees) at 8 MPH (7 knots; 3.6 m/s)
Visibility: 6 or more miles (10+ km)
Ceiling: at least 12,000 feet AGL
Clouds: few clouds at 2500 feet AGL
Weather: no significant weather observed at this time

METAR text: RJAA 040830Z 15010KT 9999 FEW020 BKN/// 25/21 Q1005 NOSIG
Conditions at: RJAA (NARITA INTL , JP) observed 0830 UTC 04 June 2020
Temperature: 25.0°C (77°F)
Dewpoint: 21.0°C (70°F) [RH = 79%]
Pressure (altimeter): 29.68 inches Hg (1005.0 mb)
Winds: from the SSE (150 degrees) at 12 MPH (10 knots; 5.1 m/s)
Visibility: 6 or more miles (10+ km)
Ceiling: at least 12,000 feet AGL
Clouds: few clouds at 2000 feet AGL
Weather: no significant weather observed at this time

METAR text: RJAA 040800Z 15011KT 8000 FEW020 BKN/// 26/21 Q1004 NOSIG RMK 1CU020 A2967
Conditions at: RJAA (NARITA INTL , JP) observed 0800 UTC 04 June 2020
Temperature: 26.0°C (79°F)
Dewpoint: 21.0°C (70°F) [RH = 74%]
Pressure (altimeter): 29.65 inches Hg (1004.0 mb)
Winds: from the SSE (150 degrees) at 13 MPH (11 knots; 5.7 m/s)
Visibility: 5 miles ( 8 km)
Ceiling: at least 12,000 feet AGL
Clouds: few clouds at 2000 feet AGL
Weather: no significant weather observed at this time

METAR text: RJAA 040730Z 14011KT 8000 FEW020 BKN/// 26/22 Q1005 NOSIG
Conditions at: RJAA (NARITA INTL , JP) observed 0730 UTC 04 June 2020
Temperature: 26.0°C (79°F)
Dewpoint: 22.0°C (72°F) [RH = 79%]
Pressure (altimeter): 29.68 inches Hg (1005.0 mb)
Winds: from the SE (140 degrees) at 13 MPH (11 knots; 5.7 m/s)
Visibility: 5 miles ( 8 km)
Ceiling: at least 12,000 feet AGL
Clouds: few clouds at 2000 feet AGL
Weather: no significant weather observed at this time

METAR text: RJAA 040700Z 15011KT 8000 FEW020 BKN/// 26/21 Q1005 NOSIG
Conditions at: RJAA (NARITA INTL , JP) observed 0700 UTC 04 June 2020
Temperature: 26.0°C (79°F)
Dewpoint: 21.0°C (70°F) [RH = 74%]
Pressure (altimeter): 29.68 inches Hg (1005.0 mb)
Winds: from the SSE (150 degrees) at 13 MPH (11 knots; 5.7 m/s)
Visibility: 5 miles ( 8 km)
Ceiling: at least 12,000 feet AGL
Clouds: few clouds at 2000 feet AGL
Weather: no significant weather observed at this time

METAR text: RJAA 040630Z 15010KT 120V190 8000 FEW020 SCT025 BKN/// 26/21 Q1005 NOSIG RMK 1CU020 3CU025 A2969
Conditions at: RJAA (NARITA INTL , JP) observed 0630 UTC 04 June 2020
Temperature: 26.0°C (79°F)
Dewpoint: 21.0°C (70°F) [RH = 74%]
Pressure (altimeter): 29.68 inches Hg (1005.0 mb)
Winds: from the SSE (150 degrees) at 12 MPH (10 knots; 5.1 m/s)
Visibility: 5 miles ( 8 km)
Ceiling: at least 12,000 feet AGL
Clouds: few clouds at 2000 feet AGL
scattered clouds at 2500 feet AGL
Weather: no significant weather observed at this time

METAR text: RJAA 040600Z 14011KT 7000 FEW020 SCT025 BKN/// 26/22 Q1005 NOSIG
Conditions at: RJAA (NARITA INTL , JP) observed 0600 UTC 04 June 2020
Temperature: 26.0°C (79°F)
Dewpoint: 22.0°C (72°F) [RH = 79%]
Pressure (altimeter): 29.68 inches Hg (1005.0 mb)
Winds: from the SE (140 degrees) at 13 MPH (11 knots; 5.7 m/s)
Visibility: 4 miles ( 7 km)
Ceiling: at least 12,000 feet AGL
Clouds: few clouds at 2000 feet AGL
scattered clouds at 2500 feet AGL
Weather: no significant weather observed at this time

METAR text: RJAA 040530Z 14011KT 7000 FEW020 SCT025 BKN/// 27/22 Q1005 NOSIG RMK 1CU020 4CU025 A2968
Conditions at: RJAA (NARITA INTL , JP) observed 0530 UTC 04 June 2020
Temperature: 27.0°C (81°F)
Dewpoint: 22.0°C (72°F) [RH = 74%]
Pressure (altimeter): 29.68 inches Hg (1005.0 mb)
Winds: from the SE (140 degrees) at 13 MPH (11 knots; 5.7 m/s)
Visibility: 4 miles ( 7 km)
Ceiling: at least 12,000 feet AGL
Clouds: few clouds at 2000 feet AGL
scattered clouds at 2500 feet AGL
Weather: no significant weather observed at this time

METAR text: RJAA 040500Z 14009KT 120V180 8000 FEW020 BKN025 BKN/// 26/21 Q1005 NOSIG RMK 2CU020 5CU025 A2969
Conditions at: RJAA (NARITA INTL , JP) observed 0500 UTC 04 June 2020
Temperature: 26.0°C (79°F)
Dewpoint: 21.0°C (70°F) [RH = 74%]
Pressure (altimeter): 29.68 inches Hg (1005.0 mb)
Winds: from the SE (140 degrees) at 10 MPH (9 knots; 4.6 m/s)
Visibility: 5 miles ( 8 km)
Ceiling: 2500 feet AGL
Clouds: few clouds at 2000 feet AGL
broken clouds at 2500 feet AGL
Weather: no significant weather observed at this time

METAR text: RJAA 040430Z 16009KT 100V190 8000 FEW020 SCT025 BKN/// 25/21 Q1005 NOSIG RMK 1CU020 4CU025 A2970
Conditions at: RJAA (NARITA INTL , JP) observed 0430 UTC 04 June 2020
Temperature: 25.0°C (77°F)
Dewpoint: 21.0°C (70°F) [RH = 79%]
Pressure (altimeter): 29.68 inches Hg (1005.0 mb)
Winds: from the SSE (160 degrees) at 10 MPH (9 knots; 4.6 m/s)
Visibility: 5 miles ( 8 km)
Ceiling: at least 12,000 feet AGL
Clouds: few clouds at 2000 feet AGL
scattered clouds at 2500 feet AGL
Weather: no significant weather observed at this time

METAR text: RJAA 040400Z 15008KT 120V200 8000 FEW020 SCT025 BKN/// 26/20 Q1006 NOSIG
Conditions at: RJAA (NARITA INTL , JP) observed 0400 UTC 04 June 2020
Temperature: 26.0°C (79°F)
Dewpoint: 20.0°C (68°F) [RH = 70%]
Pressure (altimeter): 29.70 inches Hg (1006.0 mb)
Winds: from the SSE (150 degrees) at 9 MPH (8 knots; 4.1 m/s)
Visibility: 5 miles ( 8 km)
Ceiling: at least 12,000 feet AGL
Clouds: few clouds at 2000 feet AGL
scattered clouds at 2500 feet AGL
Weather: no significant weather observed at this time

METAR text: RJAA 040330Z 13007KT 8000 FEW018 SCT020 BKN/// 25/21 Q1006 NOSIG
Conditions at: RJAA (NARITA INTL , JP) observed 0330 UTC 04 June 2020
Temperature: 25.0°C (77°F)
Dewpoint: 21.0°C (70°F) [RH = 79%]
Pressure (altimeter): 29.70 inches Hg (1006.0 mb)
Winds: from the SE (130 degrees) at 8 MPH (7 knots; 3.6 m/s)
Visibility: 5 miles ( 8 km)
Ceiling: at least 12,000 feet AGL
Clouds: few clouds at 1800 feet AGL
scattered clouds at 2000 feet AGL
Weather: no significant weather observed at this time

METAR text: RJAA 040300Z 14009KT 9000 FEW020 BKN025 BKN/// 25/20 Q1006 NOSIG RMK 1CU020 5CU025 A2971
Conditions at: RJAA (NARITA INTL , JP) observed 0300 UTC 04 June 2020
Temperature: 25.0°C (77°F)
Dewpoint: 20.0°C (68°F) [RH = 74%]
Pressure (altimeter): 29.70 inches Hg (1006.0 mb)
Winds: from the SE (140 degrees) at 10 MPH (9 knots; 4.6 m/s)
Visibility: 6 miles ( 9 km)
Ceiling: 2500 feet AGL
Clouds: few clouds at 2000 feet AGL
broken clouds at 2500 feet AGL
Weather: no significant weather observed at this time

METAR text: RJAA 040230Z 10003KT 050V200 9000 FEW020 BKN025 BKN/// 25/20 Q1006 NOSIG
Conditions at: RJAA (NARITA INTL , JP) observed 0230 UTC 04 June 2020
Temperature: 25.0°C (77°F)
Dewpoint: 20.0°C (68°F) [RH = 74%]
Pressure (altimeter): 29.70 inches Hg (1006.0 mb)
Winds: from the E (100 degrees) at 3 MPH (3 knots; 1.5 m/s)
Visibility: 6 miles ( 9 km)
Ceiling: 2500 feet AGL
Clouds: few clouds at 2000 feet AGL
broken clouds at 2500 feet AGL
Weather: no significant weather observed at this time

METAR text: RJAA 040200Z 13004KT 090V200 9000 FEW020 BKN025 25/20 Q1006 NOSIG RMK 1CU020 7CU025 A2972
Conditions at: RJAA (NARITA INTL , JP) observed 0200 UTC 04 June 2020
Temperature: 25.0°C (77°F)
Dewpoint: 20.0°C (68°F) [RH = 74%]
Pressure (altimeter): 29.70 inches Hg (1006.0 mb)
Winds: from the SE (130 degrees) at 5 MPH (4 knots; 2.1 m/s)
Visibility: 6 miles ( 9 km)
Ceiling: 2500 feet AGL
Clouds: few clouds at 2000 feet AGL
broken clouds at 2500 feet AGL
Weather: no significant weather observed at this time

METAR text: RJAA 040130Z 11004KT 040V180 8000 FEW018 BKN020 24/19 Q1006 NOSIG RMK 1CU018 7CU020 A2973
Conditions at: RJAA (NARITA INTL , JP) observed 0130 UTC 04 June 2020
Temperature: 24.0°C (75°F)
Dewpoint: 19.0°C (66°F) [RH = 74%]
Pressure (altimeter): 29.70 inches Hg (1006.0 mb)
Winds: from the ESE (110 degrees) at 5 MPH (4 knots; 2.1 m/s)
Visibility: 5 miles ( 8 km)
Ceiling: 2000 feet AGL
Clouds: few clouds at 1800 feet AGL
broken clouds at 2000 feet AGL
Weather: no significant weather observed at this time

METAR text: RJAA 040100Z 07004KT 020V120 8000 FEW012 SCT015 BKN018 24/19 Q1006 NOSIG RMK 1CU012 3CU015 7CU018 A2972
Conditions at: RJAA (NARITA INTL , JP) observed 0100 UTC 04 June 2020
Temperature: 24.0°C (75°F)
Dewpoint: 19.0°C (66°F) [RH = 74%]
Pressure (altimeter): 29.70 inches Hg (1006.0 mb)
Winds: from the ENE (70 degrees) at 5 MPH (4 knots; 2.1 m/s)
Visibility: 5 miles ( 8 km)
Ceiling: 1800 feet AGL
Clouds: few clouds at 1200 feet AGL
scattered clouds at 1500 feet AGL
broken clouds at 1800 feet AGL
Weather: no significant weather observed at this time

METAR text: RJAA 040030Z 06005KT 010V090 8000 FEW010 SCT012 BKN017 23/20 Q1006 BECMG 09005KT RMK 1ST010 3CU012 7CU017 A2971
Conditions at: RJAA (NARITA INTL , JP) observed 0030 UTC 04 June 2020
Temperature: 23.0°C (73°F)
Dewpoint: 20.0°C (68°F) [RH = 83%]
Pressure (altimeter): 29.70 inches Hg (1006.0 mb)
Winds: from the ENE (60 degrees) at 6 MPH (5 knots; 2.6 m/s)
Visibility: 5 miles ( 8 km)
Ceiling: 1700 feet AGL
Clouds: few clouds at 1000 feet AGL
scattered clouds at 1200 feet AGL
broken clouds at 1700 feet AGL
Weather: no significant weather observed at this time

METAR text: RJAA 040000Z 02006KT 350V060 8000 FEW009 BKN012 23/20 Q1006 BECMG FEW008 SCT012 RMK 1ST009 6CU012 A2971
Conditions at: RJAA (NARITA INTL , JP) observed 0000 UTC 04 June 2020
Temperature: 23.0°C (73°F)
Dewpoint: 20.0°C (68°F) [RH = 83%]
Pressure (altimeter): 29.70 inches Hg (1006.0 mb)
Winds: from the NNE (20 degrees) at 7 MPH (6 knots; 3.1 m/s)
Visibility: 5 miles ( 8 km)
Ceiling: 1200 feet AGL
Clouds: few clouds at 900 feet AGL
broken clouds at 1200 feet AGL
Weather: no significant weather observed at this time

METAR text: RJAA 032330Z 04006KT 360V070 7000 FEW009 BKN011 23/20 Q1006 BECMG FEW008 SCT012
Conditions at: RJAA (NARITA INTL , JP) observed 2330 UTC 03 June 2020
Temperature: 23.0°C (73°F)
Dewpoint: 20.0°C (68°F) [RH = 83%]
Pressure (altimeter): 29.70 inches Hg (1006.0 mb)
Winds: from the NE (40 degrees) at 7 MPH (6 knots; 3.1 m/s)
Visibility: 4 miles ( 7 km)
Ceiling: 1100 feet AGL
Clouds: few clouds at 900 feet AGL
broken clouds at 1100 feet AGL
Weather: no significant weather observed at this time

METAR text: RJAA 032300Z 04006KT 6000 FEW008 SCT009 BKN010 22/20 Q1006 BECMG FEW008 SCT012
Conditions at: RJAA (NARITA INTL , JP) observed 2300 UTC 03 June 2020
Temperature: 22.0°C (72°F)
Dewpoint: 20.0°C (68°F) [RH = 88%]
Pressure (altimeter): 29.70 inches Hg (1006.0 mb)
Winds: from the NE (40 degrees) at 7 MPH (6 knots; 3.1 m/s)
Visibility: 4 miles ( 6 km)
Ceiling: 1000 feet AGL
Clouds: few clouds at 800 feet AGL
scattered clouds at 900 feet AGL
broken clouds at 1000 feet AGL
Weather: no significant weather observed at this time

METAR text: RJAA 032230Z 03007KT 330V060 5000 BR FEW006 SCT008 BKN009 22/20 Q1006 BECMG FEW008 SCT012 RMK 1ST006 3ST008 7ST009 A2973
Conditions at: RJAA (NARITA INTL , JP) observed 2230 UTC 03 June 2020
Temperature: 22.0°C (72°F)
Dewpoint: 20.0°C (68°F) [RH = 88%]
Pressure (altimeter): 29.70 inches Hg (1006.0 mb)
Winds: from the NNE (30 degrees) at 8 MPH (7 knots; 3.6 m/s)
Visibility: 3 miles ( 5 km)
Ceiling: 900 feet AGL
Clouds: few clouds at 600 feet AGL
scattered clouds at 800 feet AGL
broken clouds at 900 feet AGL
Weather: BR  (mist)

METAR text: RJAA 032200Z 07006KT 4500 BR FEW004 SCT006 BKN008 21/20 Q1006 NOSIG
Conditions at: RJAA (NARITA INTL , JP) observed 2200 UTC 03 June 2020
Temperature: 21.0°C (70°F)
Dewpoint: 20.0°C (68°F) [RH = 94%]
Pressure (altimeter): 29.70 inches Hg (1006.0 mb)
Winds: from the ENE (70 degrees) at 7 MPH (6 knots; 3.1 m/s)
Visibility: 2.80 miles (4.51 km)
Ceiling: 800 feet AGL
Clouds: few clouds at 400 feet AGL
scattered clouds at 600 feet AGL
broken clouds at 800 feet AGL
Weather: BR  (mist)

METAR text: RJAA 032130Z 07005KT 360V100 3500 BR FEW004 SCT005 BKN006 21/20 Q1006 TEMPO 3000 BR
Conditions at: RJAA (NARITA INTL , JP) observed 2130 UTC 03 June 2020
Temperature: 21.0°C (70°F)
Dewpoint: 20.0°C (68°F) [RH = 94%]
Pressure (altimeter): 29.70 inches Hg (1006.0 mb)
Winds: from the ENE (70 degrees) at 6 MPH (5 knots; 2.6 m/s)
Visibility: 2.17 miles (3.49 km)
Ceiling: 600 feet AGL
Clouds: few clouds at 400 feet AGL
scattered clouds at 500 feet AGL
broken clouds at 600 feet AGL
Weather: BR  (mist)

METAR text: RJAA 032100Z 09005KT 3000 BR FEW003 SCT004 BKN006 20/20 Q1006 NOSIG RMK 1ST003 4ST004 7ST006 A2972
Conditions at: RJAA (NARITA INTL , JP) observed 2100 UTC 03 June 2020
Temperature: 20.0°C (68°F)
Dewpoint: 20.0°C (68°F) [RH = 100%]
Pressure (altimeter): 29.70 inches Hg (1006.0 mb)
Winds: from the E (90 degrees) at 6 MPH (5 knots; 2.6 m/s)
Visibility: 1.86 miles (2.99 km)
Ceiling: 600 feet AGL
Clouds: few clouds at 300 feet AGL
scattered clouds at 400 feet AGL
broken clouds at 600 feet AGL
Weather: BR  (mist)

METAR text: RJAA 032030Z 07005KT 3500 BR FEW004 BKN006 BKN008 20/19 Q1006 TEMPO 3000 BR RMK 2ST004 5ST006 6ST008 A2972
Conditions at: RJAA (NARITA INTL , JP) observed 2030 UTC 03 June 2020
Temperature: 20.0°C (68°F)
Dewpoint: 19.0°C (66°F) [RH = 94%]
Pressure (altimeter): 29.70 inches Hg (1006.0 mb)
Winds: from the ENE (70 degrees) at 6 MPH (5 knots; 2.6 m/s)
Visibility: 2.17 miles (3.49 km)
Ceiling: 600 feet AGL
Clouds: few clouds at 400 feet AGL
broken clouds at 600 feet AGL
broken clouds at 800 feet AGL
Weather: BR  (mist)

METAR text: RJAA 032000Z 08005KT 4000 BR FEW004 SCT006 BKN008 20/19 Q1006 TEMPO 3000 BR RMK 1ST004 3ST006 6ST008 A2972
Conditions at: RJAA (NARITA INTL , JP) observed 2000 UTC 03 June 2020
Temperature: 20.0°C (68°F)
Dewpoint: 19.0°C (66°F) [RH = 94%]
Pressure (altimeter): 29.70 inches Hg (1006.0 mb)
Winds: from the E (80 degrees) at 6 MPH (5 knots; 2.6 m/s)
Visibility: 2.49 miles (4.01 km)
Ceiling: 800 feet AGL
Clouds: few clouds at 400 feet AGL
scattered clouds at 600 feet AGL
broken clouds at 800 feet AGL
Weather: BR  (mist)

METAR text: RJAA 031930Z 04004KT 3500 BR FEW004 BKN006 BKN008 20/19 Q1006 TEMPO 3000 BR RMK 2ST004 5ST006 7ST008 A2972
Conditions at: RJAA (NARITA INTL , JP) observed 1930 UTC 03 June 2020
Temperature: 20.0°C (68°F)
Dewpoint: 19.0°C (66°F) [RH = 94%]
Pressure (altimeter): 29.70 inches Hg (1006.0 mb)
Winds: from the NE (40 degrees) at 5 MPH (4 knots; 2.1 m/s)
Visibility: 2.17 miles (3.49 km)
Ceiling: 600 feet AGL
Clouds: few clouds at 400 feet AGL
broken clouds at 600 feet AGL
broken clouds at 800 feet AGL
Weather: BR  (mist)

METAR text: RJAA 031900Z 03004KT 2500 BR FEW003 BKN004 BKN006 20/19 Q1006 TEMPO 0500 FG
Conditions at: RJAA (NARITA INTL , JP) observed 1900 UTC 03 June 2020
Temperature: 20.0°C (68°F)
Dewpoint: 19.0°C (66°F) [RH = 94%]
Pressure (altimeter): 29.70 inches Hg (1006.0 mb)
Winds: from the NNE (30 degrees) at 5 MPH (4 knots; 2.1 m/s)
Visibility: 1.55 miles (2.49 km)
Ceiling: 400 feet AGL
Clouds: few clouds at 300 feet AGL
broken clouds at 400 feet AGL
broken clouds at 600 feet AGL
Weather: BR  (mist)

METAR text: RJAA 031830Z 03005KT 2500 BR FEW002 BKN003 BKN004 20/19 Q1006 TEMPO 0500 FG RMK 1ST002 5ST003 7ST004 A2971
Conditions at: RJAA (NARITA INTL , JP) observed 1830 UTC 03 June 2020
Temperature: 20.0°C (68°F)
Dewpoint: 19.0°C (66°F) [RH = 94%]
Pressure (altimeter): 29.70 inches Hg (1006.0 mb)
Winds: from the NNE (30 degrees) at 6 MPH (5 knots; 2.6 m/s)
Visibility: 1.55 miles (2.49 km)
Ceiling: 300 feet AGL
Clouds: few clouds at 200 feet AGL
broken clouds at 300 feet AGL
broken clouds at 400 feet AGL
Weather: BR  (mist)

METAR text: RJAA 031800Z 02004KT 2000 BR FEW002 BKN003 20/20 Q1005 TEMPO 0500 FG RMK 2ST002 6ST003 A2970
Conditions at: RJAA (NARITA INTL , JP) observed 1800 UTC 03 June 2020
Temperature: 20.0°C (68°F)
Dewpoint: 20.0°C (68°F) [RH = 100%]
Pressure (altimeter): 29.68 inches Hg (1005.0 mb)
Winds: from the NNE (20 degrees) at 5 MPH (4 knots; 2.1 m/s)
Visibility: 1.24 miles (2.00 km)
Ceiling: 300 feet AGL
Clouds: few clouds at 200 feet AGL
broken clouds at 300 feet AGL
Weather: BR  (mist)

METAR text: RJAA 031730Z 06003KT 020V080 2500 BR FEW002 BKN003 20/20 Q1005 TEMPO 0500 FG RMK 2ST002 7ST003 A2969
Conditions at: RJAA (NARITA INTL , JP) observed 1730 UTC 03 June 2020
Temperature: 20.0°C (68°F)
Dewpoint: 20.0°C (68°F) [RH = 100%]
Pressure (altimeter): 29.68 inches Hg (1005.0 mb)
Winds: from the ENE (60 degrees) at 3 MPH (3 knots; 1.5 m/s)
Visibility: 1.55 miles (2.49 km)
Ceiling: 300 feet AGL
Clouds: few clouds at 200 feet AGL
broken clouds at 300 feet AGL
Weather: BR  (mist)

METAR text: RJAA 031700Z VRB01KT 2800 BR FEW001 SCT002 BKN003 20/20 Q1005 TEMPO 0500 FG RMK 1ST001 3ST002 6ST003 A2969
Conditions at: RJAA (NARITA INTL , JP) observed 1700 UTC 03 June 2020
Temperature: 20.0°C (68°F)
Dewpoint: 20.0°C (68°F) [RH = 100%]
Pressure (altimeter): 29.68 inches Hg (1005.0 mb)
Winds: variable direction winds at 1 MPH (1 knots; 0.5 m/s)
Visibility: 1.74 miles (2.80 km)
Ceiling: 300 feet AGL
Clouds: few clouds at 100 feet AGL
scattered clouds at 200 feet AGL
broken clouds at 300 feet AGL
Weather: BR  (mist)

METAR text: RJAA 031630Z 12004KT 2500 BCFG BR FEW001 BKN002 BKN003 20/20 Q1005 TEMPO 0500 FG
Conditions at: RJAA (NARITA INTL , JP) observed 1630 UTC 03 June 2020
Temperature: 20.0°C (68°F)
Dewpoint: 20.0°C (68°F) [RH = 100%]
Pressure (altimeter): 29.68 inches Hg (1005.0 mb)
Winds: from the ESE (120 degrees) at 5 MPH (4 knots; 2.1 m/s)
Visibility: 1.55 miles (2.49 km)
Ceiling: 200 feet AGL
Clouds: few clouds at 100 feet AGL
broken clouds at 200 feet AGL
broken clouds at 300 feet AGL
Weather: BCFG BR  (patches of fog, mist)

METAR text: RJAA 031600Z 13004KT 070V150 1200 R16R/2000N R16L///// PRFG BR FEW001 BKN002 BKN003 20/20 Q1005 TEMPO 0500 FG RMK 1ST001 5ST002 7ST003 A2969 FG ON RWY16L AND RWY34R
Conditions at: RJAA (NARITA INTL , JP) observed 1600 UTC 03 June 2020
Temperature: 20.0°C (68°F)
Dewpoint: 20.0°C (68°F) [RH = 100%]
Pressure (altimeter): 29.68 inches Hg (1005.0 mb)
Winds: from the SE (130 degrees) at 5 MPH (4 knots; 2.1 m/s)
Visibility: 0.75 miles (1.21 km)
Ceiling: 200 feet AGL
Clouds: few clouds at 100 feet AGL
broken clouds at 200 feet AGL
broken clouds at 300 feet AGL
Weather: PRFG BR  (partial fog, mist)

METAR text: RJAA 031530Z 10005KT 1200 R16R/P2000N R16L///// BCFG BR FEW001 BKN002 BKN003 20/20 Q1005 TEMPO 0500 FG RMK 1ST001 5ST002 7ST003 A2969 FG ON RWY34R
Conditions at: RJAA (NARITA INTL , JP) observed 1530 UTC 03 June 2020
Temperature: 20.0°C (68°F)
Dewpoint: 20.0°C (68°F) [RH = 100%]
Pressure (altimeter): 29.68 inches Hg (1005.0 mb)
Winds: from the E (100 degrees) at 6 MPH (5 knots; 2.6 m/s)
Visibility: 0.75 miles (1.21 km)
Ceiling: 200 feet AGL
Clouds: few clouds at 100 feet AGL
broken clouds at 200 feet AGL
broken clouds at 300 feet AGL
Weather: BCFG BR  (patches of fog, mist)

METAR text: RJAA 031500Z 13005KT 1200 R16R/2000N R16L///// BCFG BR FEW001 BKN002 BKN003 20/20 Q1005 TEMPO 0500 FG
Conditions at: RJAA (NARITA INTL , JP) observed 1500 UTC 03 June 2020
Temperature: 20.0°C (68°F)
Dewpoint: 20.0°C (68°F) [RH = 100%]
Pressure (altimeter): 29.68 inches Hg (1005.0 mb)
Winds: from the SE (130 degrees) at 6 MPH (5 knots; 2.6 m/s)
Visibility: 0.75 miles (1.21 km)
Ceiling: 200 feet AGL
Clouds: few clouds at 100 feet AGL
broken clouds at 200 feet AGL
broken clouds at 300 feet AGL
Weather: BCFG BR  (patches of fog, mist)

METAR text: RJAA 031430Z 12004KT 080V160 2000 R16R/P2000N R16L///// BR FEW001 SCT002 BKN003 20/20 Q1005 NOSIG RMK 1ST001 3ST002 6ST003 A2970
Conditions at: RJAA (NARITA INTL , JP) observed 1430 UTC 03 June 2020
Temperature: 20.0°C (68°F)
Dewpoint: 20.0°C (68°F) [RH = 100%]
Pressure (altimeter): 29.68 inches Hg (1005.0 mb)
Winds: from the ESE (120 degrees) at 5 MPH (4 knots; 2.1 m/s)
Visibility: 1.24 miles (2.00 km)
Ceiling: 300 feet AGL
Clouds: few clouds at 100 feet AGL
scattered clouds at 200 feet AGL
broken clouds at 300 feet AGL
Weather: BR  (mist)

Forecast for: RJAA (NARITA INTL , JP)
Text: TAF RJAA 042305Z 0500/0606 16010KT 9999 FEW020 SCT040
Forecast period: 0000 to 1500 UTC 05 June 2020
Forecast type: FROM: standard forecast or significant change
Winds: from the SSE (160 degrees) at 12 MPH (10 knots; 5.1 m/s)
Visibility: 6 or more miles 10+ km)
Ceiling: at least 12,000 feet AGL
Clouds: few clouds at 2000 feet AGL
scattered clouds at 4000 feet AGL
Weather: no significant weather forecast for this period
Text: BECMG 0515/0518 04008KT 4000 BR FEW003 BKN008
Forecast period: 1500 UTC 05 June 2020 to 0000 UTC 06 June 2020
Forecast type: BECOMING: Conditions expected to become as follows by 1800 UTC 05 June 2020
Winds: from the NE (40 degrees) at 9 MPH (8 knots; 4.1 m/s)
Visibility: 2.49 miles (4.01 km)
Ceiling: 800 feet AGL
Clouds: few clouds at 300 feet AGL
broken clouds at 800 feet AGL
Weather: BR  (mist)
Text: TEMPO 0518/0521 2000 BR FEW001 BKN005
Forecast period: 1800 to 2100 UTC 05 June 2020
Forecast type: TEMPORARY: The following changes expected for less than half the time period
Visibility: 1.24 miles (2.00 km)
Ceiling: 500 feet AGL
Clouds: few clouds at 100 feet AGL
broken clouds at 500 feet AGL
Weather: BR  (mist)
Text: BECMG 0600/0603 9999 NSW FEW015 BKN030
Forecast period: 0000 to 0600 UTC 06 June 2020
Forecast type: BECOMING: Conditions expected to become as follows by 0300 UTC 06 June 2020
Winds: from the NE (40 degrees) at 9 MPH (8 knots; 4.1 m/s)
Visibility: 6 or more miles 10+ km)
Ceiling: 3000 feet AGL
Clouds: few clouds at 1500 feet AGL
broken clouds at 3000 feet AGL
Weather: NSW  (no significant weather)